createdAt,value
2019-05-06T00:00:25.107Z,7.28
2019-05-06T00:02:54.503Z,7.29
2019-05-06T00:05:25.332Z,7.40
2019-05-06T00:07:54.720Z,7.34
2019-05-06T00:10:26.303Z,7.29
2019-05-06T00:12:55.174Z,7.21
2019-05-06T00:15:23.883Z,7.18
2019-05-06T00:17:53.918Z,7.35
2019-05-06T00:20:24.380Z,7.37
2019-05-06T00:22:55.492Z,7.54
2019-05-06T00:25:37.696Z,7.64
2019-05-06T00:28:30.162Z,7.90
2019-05-06T00:31:10.370Z,7.85
2019-05-06T00:33:30.332Z,7.86
2019-05-06T00:36:00.579Z,7.86
2019-05-06T00:38:29.357Z,7.90
2019-05-06T00:41:01.232Z,7.99
2019-05-06T00:43:29.855Z,8.12
2019-05-06T00:45:58.462Z,8.04
2019-05-06T00:48:27.075Z,8.14
2019-05-06T00:50:55.733Z,7.98
2019-05-06T00:53:26.106Z,7.93
2019-05-06T00:55:54.723Z,7.82
2019-05-06T00:58:23.950Z,7.71
2019-05-06T01:00:53.807Z,7.70
2019-05-06T01:03:23.915Z,7.55
2019-05-06T01:05:54.209Z,7.57
2019-05-06T01:08:23.965Z,7.53
2019-05-06T01:10:54.431Z,7.46
2019-05-06T01:13:47.498Z,7.22
2019-05-06T01:16:17.478Z,7.16
2019-05-06T01:18:46.086Z,7.23
2019-05-06T01:21:14.799Z,7.21
2019-05-06T01:23:44.516Z,7.17
2019-05-06T01:26:15.089Z,7.25
2019-05-06T01:28:43.970Z,7.20
2019-05-06T01:31:14.096Z,7.25
2019-05-06T01:33:45.031Z,7.33
2019-05-06T01:36:14.204Z,7.26
2019-05-06T01:38:53.670Z,7.16
2019-05-06T01:41:44.724Z,6.77
2019-05-06T01:44:13.712Z,6.78
2019-05-06T01:46:44.609Z,6.91
2019-05-06T01:49:13.824Z,6.98
2019-05-06T01:51:43.835Z,7.03
2019-05-06T01:54:14.175Z,6.98
2019-05-06T01:56:44.435Z,6.99
2019-05-06T01:59:14.066Z,6.99
2019-05-06T02:01:54.870Z,7.12
2019-05-06T02:04:13.956Z,7.05
2019-05-06T02:06:43.816Z,7.10
2019-05-06T02:09:17.239Z,7.10
2019-05-06T02:11:48.012Z,6.93
2019-05-06T02:14:16.671Z,6.83
2019-05-06T02:16:45.303Z,6.74
2019-05-06T02:19:14.822Z,6.70
2019-05-06T02:22:01.229Z,6.58
2019-05-06T02:24:35.587Z,6.60
2019-05-06T02:27:04.618Z,6.62
2019-05-06T02:29:36.022Z,6.46
2019-05-06T02:32:31.618Z,6.45
2019-05-06T02:35:26.424Z,6.33
2019-05-06T02:37:55.455Z,6.26
2019-05-06T02:40:26.157Z,6.17
2019-05-06T02:42:55.386Z,6.20
2019-05-06T02:45:24.467Z,6.22
2019-05-06T02:48:13.741Z,6.24
2019-05-06T02:51:03.992Z,6.19
2019-05-06T02:53:33.508Z,6.16
2019-05-06T02:56:04.106Z,6.22
2019-05-06T02:58:33.228Z,6.07
2019-05-06T03:01:03.637Z,5.98
2019-05-06T03:03:33.746Z,5.94
2019-05-06T03:06:03.832Z,5.91
2019-05-06T03:08:33.218Z,6.02
2019-05-06T03:11:03.967Z,5.93
2019-05-06T03:13:33.931Z,5.91
2019-05-06T03:16:05.671Z,6.03
2019-05-06T03:18:32.977Z,5.97
2019-05-06T03:21:13.839Z,5.97
2019-05-06T03:23:45.919Z,5.96
2019-05-06T03:26:14.605Z,6.02
2019-05-06T03:28:44.196Z,5.99
2019-05-06T03:31:16.505Z,5.86
2019-05-06T03:33:58.401Z,5.74
2019-05-06T03:36:23.909Z,5.69
2019-05-06T03:38:44.317Z,5.66
2019-05-06T03:41:13.888Z,5.53
2019-05-06T03:43:43.627Z,5.51
2019-05-06T03:46:23.184Z,5.65
2019-05-06T03:48:53.307Z,5.60
2019-05-06T03:51:23.295Z,5.54
2019-05-06T03:53:54.005Z,5.54
2019-05-06T03:56:23.975Z,5.44
2019-05-06T03:58:53.898Z,5.36
2019-05-06T04:01:23.959Z,5.35
2019-05-06T04:03:56.932Z,5.28
2019-05-06T04:06:24.134Z,5.24
2019-05-06T04:08:53.861Z,5.16
2019-05-06T04:11:24.306Z,5.08
2019-05-06T04:13:53.567Z,4.82
2019-05-06T04:16:46.895Z,4.89
2019-05-06T04:19:23.495Z,4.87
2019-05-06T04:22:03.818Z,4.67
2019-05-06T04:24:53.704Z,4.79
2019-05-06T04:27:48.701Z,4.67
2019-05-06T04:30:18.070Z,4.90
2019-05-06T04:32:46.837Z,4.62
2019-05-06T04:35:15.549Z,4.53
2019-05-06T04:37:44.456Z,4.55
2019-05-06T04:40:13.349Z,4.56
2019-05-06T04:42:44.428Z,4.57
2019-05-06T04:45:13.546Z,4.30
2019-05-06T04:47:43.512Z,4.48
2019-05-06T04:50:13.111Z,4.46
2019-05-06T04:52:43.170Z,4.67
2019-05-06T04:55:14.341Z,4.89
2019-05-06T04:57:43.986Z,4.91
2019-05-06T05:00:13.409Z,4.99
2019-05-06T05:02:43.079Z,4.99
2019-05-06T05:05:13.882Z,4.93
2019-05-06T05:07:42.953Z,5.06
2019-05-06T05:10:17.940Z,5.13
2019-05-06T05:12:57.461Z,5.06
2019-05-06T05:15:43.700Z,5.13
2019-05-06T05:18:32.023Z,5.25
2019-05-06T05:21:02.405Z,5.45
2019-05-06T05:23:31.893Z,5.75
2019-05-06T05:26:02.955Z,5.78
2019-05-06T05:28:32.048Z,5.88
2019-05-06T05:31:02.925Z,5.98
2019-05-06T05:33:32.718Z,6.06
2019-05-06T05:36:02.208Z,6.15
2019-05-06T05:38:32.027Z,6.22
2019-05-06T05:41:02.972Z,6.35
2019-05-06T05:43:54.254Z,6.46
2019-05-06T05:46:22.910Z,6.59
2019-05-06T05:49:21.941Z,6.62
2019-05-06T05:51:51.985Z,6.76
2019-05-06T05:54:22.996Z,6.86
2019-05-06T05:56:52.924Z,6.79
2019-05-06T05:59:23.130Z,6.90
2019-05-06T06:01:53.039Z,7.00
2019-05-06T06:04:22.580Z,7.01
2019-05-06T06:06:51.961Z,7.01
2019-05-06T06:09:22.547Z,7.12
2019-05-06T06:11:53.483Z,7.37
2019-05-06T06:14:55.738Z,7.59
2019-05-06T06:17:45.987Z,7.47
2019-05-06T06:20:33.317Z,7.56
2019-05-06T06:23:07.614Z,7.66
2019-05-06T06:25:36.761Z,7.96
2019-05-06T06:28:05.471Z,8.13
2019-05-06T06:30:42.419Z,8.32
2019-05-06T06:33:12.859Z,8.44
2019-05-06T06:35:51.975Z,8.63
2019-05-06T06:38:25.596Z,8.55
2019-05-06T06:40:55.729Z,8.68
2019-05-06T06:43:26.288Z,8.58
2019-05-06T06:45:55.059Z,8.62
2019-05-06T06:48:23.669Z,8.65
2019-05-06T06:50:52.394Z,8.65
2019-05-06T06:53:21.870Z,8.64
2019-05-06T06:55:52.381Z,8.80
2019-05-06T06:58:46.382Z,8.87
2019-05-06T07:01:42.199Z,9.01
2019-05-06T07:04:18.766Z,9.04
2019-05-06T07:06:49.816Z,8.88
2019-05-06T07:09:18.446Z,9.06
2019-05-06T07:11:47.045Z,9.15
2019-05-06T07:14:15.788Z,9.21
2019-05-06T07:16:44.390Z,9.01
2019-05-06T07:19:15.024Z,8.95
2019-05-06T07:21:53.475Z,8.92
2019-05-06T07:24:29.631Z,8.77
2019-05-06T07:27:07.389Z,8.97
2019-05-06T07:29:36.021Z,9.16
2019-05-06T07:32:04.756Z,9.32
2019-05-06T07:34:33.367Z,9.62
2019-05-06T07:37:03.479Z,9.51
2019-05-06T07:39:33.356Z,9.55
2019-05-06T07:42:03.957Z,9.66
2019-05-06T07:44:52.962Z,9.84
2019-05-06T07:47:43.248Z,9.98
2019-05-06T07:50:13.022Z,10.11
2019-05-06T07:52:44.314Z,10.18
2019-05-06T07:55:14.044Z,9.89
2019-05-06T07:57:42.683Z,10.11
2019-05-06T08:00:12.523Z,10.03
2019-05-06T08:02:42.589Z,10.01
2019-05-06T08:05:12.749Z,10.02
2019-05-06T08:07:42.252Z,10.11
2019-05-06T08:10:13.434Z,10.25
2019-05-06T08:12:42.841Z,10.30
2019-05-06T08:15:12.713Z,10.38
2019-05-06T08:17:42.553Z,10.29
2019-05-06T08:20:12.883Z,10.32
2019-05-06T08:23:02.146Z,10.46
2019-05-06T08:26:09.183Z,10.29
2019-05-06T08:28:37.513Z,10.36
2019-05-06T08:30:56.703Z,10.47
2019-05-06T08:33:27.638Z,10.81
2019-05-06T08:36:10.560Z,10.95
2019-05-06T08:38:26.158Z,11.08
2019-05-06T08:40:54.951Z,10.91
2019-05-06T08:43:23.628Z,10.87
2019-05-06T08:45:52.877Z,10.77
2019-05-06T08:48:22.150Z,10.71
2019-05-06T08:51:13.066Z,10.57
2019-05-06T08:54:03.050Z,10.60
2019-05-06T08:56:39.780Z,10.36
2019-05-06T08:59:08.474Z,10.57
2019-05-06T09:01:45.161Z,10.78
2019-05-06T09:04:16.377Z,11.10
2019-05-06T09:06:44.218Z,11.30
2019-05-06T09:09:13.203Z,11.30
2019-05-06T09:11:43.132Z,11.25
2019-05-06T09:14:13.795Z,11.39
2019-05-06T09:16:43.795Z,11.22
2019-05-06T09:19:13.165Z,10.89
2019-05-06T09:21:45.844Z,10.76
2019-05-06T09:24:12.990Z,10.70
2019-05-06T09:26:48.580Z,10.89
2019-05-06T09:29:54.420Z,10.90
2019-05-06T09:32:35.968Z,10.88
2019-05-06T09:35:05.270Z,11.07
2019-05-06T09:37:33.919Z,11.23
2019-05-06T09:40:03.030Z,11.44
2019-05-06T09:42:32.200Z,11.40
2019-05-06T09:45:02.236Z,11.24
2019-05-06T09:47:53.191Z,11.22
2019-05-06T09:50:36.564Z,11.12
2019-05-06T09:53:05.783Z,11.07
2019-05-06T09:55:43.139Z,10.96
2019-05-06T09:58:12.328Z,11.17
2019-05-06T10:00:43.534Z,11.40
2019-05-06T10:03:12.281Z,11.27
2019-05-06T10:05:42.535Z,11.37
2019-05-06T10:08:12.443Z,11.32
2019-05-06T10:10:53.746Z,11.19
2019-05-06T10:13:12.891Z,11.56
2019-05-06T10:15:42.859Z,11.64
2019-05-06T10:18:13.274Z,11.67
2019-05-06T10:20:43.919Z,12.05
2019-05-06T10:23:13.075Z,11.95
2019-05-06T10:25:43.602Z,11.81
2019-05-06T10:28:19.613Z,11.89
2019-05-06T10:30:48.299Z,11.82
2019-05-06T10:33:19.265Z,11.84
2019-05-06T10:35:48.008Z,11.64
2019-05-06T10:38:45.026Z,11.49
2019-05-06T10:41:18.426Z,11.51
2019-05-06T10:44:06.963Z,11.39
2019-05-06T10:46:35.690Z,11.87
2019-05-06T10:49:04.313Z,12.15
2019-05-06T10:51:52.985Z,12.21
2019-05-06T10:54:22.873Z,12.56
2019-05-06T10:57:16.488Z,12.97
2019-05-06T10:59:45.184Z,13.02
2019-05-06T11:02:25.038Z,13.06
2019-05-06T11:04:53.686Z,12.67
2019-05-06T11:07:31.464Z,12.62
2019-05-06T11:09:53.256Z,12.32
2019-05-06T11:12:22.185Z,12.23
2019-05-06T11:14:55.294Z,12.04
2019-05-06T11:17:23.366Z,11.97
2019-05-06T11:19:53.336Z,11.79
2019-05-06T11:22:24.640Z,11.79
2019-05-06T11:24:52.432Z,11.75
2019-05-06T11:27:28.726Z,11.94
2019-05-06T11:29:53.182Z,12.04
2019-05-06T11:32:55.886Z,12.11
2019-05-06T11:35:33.245Z,12.28
2019-05-06T11:38:13.446Z,12.46
2019-05-06T11:40:42.216Z,12.41
2019-05-06T11:43:11.973Z,12.75
2019-05-06T11:45:42.600Z,13.05
2019-05-06T11:48:14.366Z,13.01
2019-05-06T11:50:43.113Z,13.16
2019-05-06T11:53:12.521Z,12.59
2019-05-06T11:55:41.204Z,12.64
2019-05-06T11:58:28.867Z,12.99
2019-05-06T12:00:59.583Z,12.99
2019-05-06T12:03:28.199Z,12.45
2019-05-06T12:05:56.828Z,12.77
2019-05-06T12:08:25.522Z,12.85
2019-05-06T12:10:54.145Z,13.16
2019-05-06T12:13:23.123Z,13.23
2019-05-06T12:15:52.505Z,13.18
2019-05-06T12:18:23.081Z,13.13
2019-05-06T12:20:52.756Z,13.37
2019-05-06T12:23:22.392Z,13.58
2019-05-06T12:25:52.952Z,13.71
2019-05-06T12:28:21.598Z,13.84
2019-05-06T12:30:52.395Z,13.85
2019-05-06T12:33:39.635Z,13.88
2019-05-06T12:36:22.632Z,14.25
2019-05-06T12:39:09.648Z,14.32
2019-05-06T12:41:48.865Z,13.44
2019-05-06T12:44:17.505Z,13.59
2019-05-06T12:47:05.487Z,13.73
2019-05-06T12:49:34.189Z,13.64
2019-05-06T12:52:02.892Z,13.98
2019-05-06T12:54:33.512Z,13.97
2019-05-06T12:57:03.275Z,13.80
2019-05-06T12:59:32.176Z,13.36
2019-05-06T13:02:02.659Z,13.37
2019-05-06T13:04:50.374Z,13.46
2019-05-06T13:07:02.993Z,13.51
2019-05-06T13:09:33.183Z,13.52
2019-05-06T13:12:03.949Z,13.70
2019-05-06T13:14:33.082Z,14.09
2019-05-06T13:17:02.650Z,13.91
2019-05-06T13:19:32.258Z,14.11
2019-05-06T13:22:03.580Z,14.14
2019-05-06T13:24:32.713Z,14.23
2019-05-06T13:27:02.518Z,14.15
2019-05-06T13:29:35.418Z,14.05
2019-05-06T13:32:03.159Z,14.05
2019-05-06T13:34:33.386Z,14.25
2019-05-06T13:37:02.216Z,14.37
2019-05-06T13:39:32.811Z,14.28
2019-05-06T13:42:01.152Z,14.20
2019-05-06T13:44:31.805Z,14.40
2019-05-06T13:47:02.778Z,13.78
2019-05-06T13:49:54.363Z,13.79
2019-05-06T13:52:25.809Z,14.11
2019-05-06T13:54:54.477Z,13.55
2019-05-06T13:57:23.123Z,13.79
2019-05-06T13:59:53.246Z,13.95
2019-05-06T14:02:27.883Z,14.27
2019-05-06T14:04:56.746Z,14.38
2019-05-06T14:07:25.475Z,14.38
2019-05-06T14:09:54.160Z,14.32
2019-05-06T14:12:22.777Z,14.47
2019-05-06T14:14:52.626Z,14.57
2019-05-06T14:17:22.362Z,14.28
2019-05-06T14:19:53.157Z,13.95
2019-05-06T14:22:23.221Z,13.98
2019-05-06T14:25:01.038Z,13.99
2019-05-06T14:27:29.710Z,14.23
2019-05-06T14:30:04.640Z,13.86
2019-05-06T14:32:33.507Z,14.08
2019-05-06T14:35:02.119Z,13.79
2019-05-06T14:37:32.823Z,13.59
2019-05-06T14:40:02.615Z,13.70
2019-05-06T14:42:32.939Z,13.71
2019-05-06T14:45:01.715Z,14.10
2019-05-06T14:47:32.820Z,14.53
2019-05-06T14:50:03.875Z,14.73
2019-05-06T14:52:33.335Z,14.62
2019-05-06T14:55:19.263Z,14.20
2019-05-06T14:57:48.004Z,14.32
2019-05-06T15:00:18.795Z,14.22
2019-05-06T15:02:47.411Z,14.18
2019-05-06T15:05:16.494Z,14.09
2019-05-06T15:07:45.167Z,13.85
2019-05-06T15:10:22.700Z,13.89
2019-05-06T15:12:44.421Z,14.02
2019-05-06T15:15:13.117Z,14.06
2019-05-06T15:17:43.015Z,13.76
2019-05-06T15:20:12.218Z,14.02
2019-05-06T15:22:42.043Z,13.91
2019-05-06T15:25:12.933Z,14.11
2019-05-06T15:27:42.590Z,13.81
2019-05-06T15:30:16.355Z,14.02
2019-05-06T15:32:45.057Z,13.58
2019-05-06T15:35:22.870Z,13.73
2019-05-06T15:37:54.686Z,13.87
2019-05-06T15:40:32.061Z,13.83
2019-05-06T15:42:53.858Z,13.75
2019-05-06T15:45:22.617Z,13.88
2019-05-06T15:47:52.319Z,14.04
2019-05-06T15:50:23.030Z,14.23
2019-05-06T15:52:53.671Z,14.05
2019-05-06T15:55:22.601Z,14.04
2019-05-06T15:57:52.607Z,14.06
2019-05-06T16:00:22.723Z,14.08
2019-05-06T16:02:52.987Z,14.22
2019-05-06T16:05:26.127Z,14.15
2019-05-06T16:07:53.036Z,14.04
2019-05-06T16:10:22.643Z,14.08
2019-05-06T16:12:53.368Z,14.02
2019-05-06T16:15:24.507Z,13.99
2019-05-06T16:17:52.956Z,13.88
2019-05-06T16:20:22.303Z,14.15
2019-05-06T16:22:54.999Z,13.88
2019-05-06T16:25:23.634Z,13.66
2019-05-06T16:27:54.851Z,13.82
2019-05-06T16:30:24.444Z,13.86
2019-05-06T16:32:53.388Z,13.95
2019-05-06T16:35:22.832Z,14.11
2019-05-06T16:37:51.684Z,14.08
2019-05-06T16:40:22.965Z,13.97
2019-05-06T16:42:54.218Z,13.95
2019-05-06T16:45:23.416Z,13.91
2019-05-06T16:47:52.519Z,13.76
2019-05-06T16:50:22.585Z,13.52
2019-05-06T16:52:52.701Z,13.74
2019-05-06T16:55:27.382Z,13.43
2019-05-06T16:58:02.495Z,13.37
2019-05-06T17:00:32.891Z,13.48
2019-05-06T17:03:14.636Z,13.44
2019-05-06T17:06:01.542Z,13.52
2019-05-06T17:08:30.178Z,13.54
2019-05-06T17:10:58.807Z,13.44
2019-05-06T17:13:27.554Z,13.35
2019-05-06T17:15:56.481Z,13.25
2019-05-06T17:18:25.089Z,13.03
2019-05-06T17:20:53.730Z,12.82
2019-05-06T17:23:22.499Z,13.05
2019-05-06T17:25:52.121Z,13.07
2019-05-06T17:28:35.727Z,12.84
2019-05-06T17:31:16.682Z,12.78
2019-05-06T17:33:45.490Z,12.57
2019-05-06T17:36:15.785Z,12.60
2019-05-06T17:38:46.878Z,12.67
2019-05-06T17:41:15.569Z,12.63
2019-05-06T17:43:44.379Z,12.59
2019-05-06T17:46:14.133Z,12.41
2019-05-06T17:49:02.377Z,12.26
2019-05-06T17:51:39.766Z,12.16
2019-05-06T17:54:08.415Z,12.04
2019-05-06T17:56:37.051Z,12.15
2019-05-06T17:59:05.823Z,12.11
2019-05-06T18:01:42.043Z,12.11
2019-05-06T18:04:12.550Z,12.10
2019-05-06T18:06:42.452Z,12.02
2019-05-06T18:09:12.717Z,12.06
2019-05-06T18:11:42.388Z,12.04
2019-05-06T18:14:12.367Z,11.96
2019-05-06T18:16:42.725Z,12.06
2019-05-06T18:19:12.637Z,12.02
2019-05-06T18:21:41.745Z,11.78
2019-05-06T18:24:12.667Z,11.74
2019-05-06T18:26:42.078Z,11.63
2019-05-06T18:29:12.564Z,11.62
2019-05-06T18:31:42.656Z,11.53
2019-05-06T18:34:12.880Z,11.50
2019-05-06T18:36:42.924Z,11.55
2019-05-06T18:39:12.592Z,11.46
2019-05-06T18:41:42.107Z,11.29
2019-05-06T18:44:11.946Z,11.11
2019-05-06T18:46:44.113Z,11.09
2019-05-06T18:49:18.659Z,10.95
2019-05-06T18:51:56.416Z,11.07
2019-05-06T18:54:29.727Z,10.86
2019-05-06T18:57:04.951Z,11.01
2019-05-06T18:59:37.141Z,10.92
2019-05-06T19:02:09.425Z,10.84
2019-05-06T19:05:09.397Z,10.79
2019-05-06T19:07:40.372Z,10.57
2019-05-06T19:10:17.433Z,10.49
2019-05-06T19:12:49.652Z,10.57
2019-05-06T19:15:22.061Z,10.36
2019-05-06T19:17:55.082Z,10.33
2019-05-06T19:20:54.625Z,10.30
2019-05-06T19:23:23.586Z,10.08
2019-05-06T19:25:53.964Z,10.22
2019-05-06T19:28:26.251Z,10.22
2019-05-06T19:30:56.641Z,10.39
2019-05-06T19:33:27.552Z,10.35
2019-05-06T19:35:58.669Z,10.14
2019-05-06T19:38:33.574Z,10.07
2019-05-06T19:41:02.457Z,10.01
2019-05-06T19:43:32.945Z,9.84
2019-05-06T19:46:38.508Z,9.79
2019-05-06T19:49:10.981Z,9.96
2019-05-06T19:51:45.459Z,10.11
2019-05-06T19:54:22.578Z,10.10
2019-05-06T19:56:54.026Z,10.18
2019-05-06T19:59:25.883Z,10.13
2019-05-06T20:01:58.574Z,10.18
2019-05-06T20:04:33.383Z,10.14
2019-05-06T20:07:22.836Z,10.07
2019-05-06T20:10:13.560Z,10.16
2019-05-06T20:12:58.440Z,10.10
2019-05-06T20:15:36.483Z,9.99
2019-05-06T20:18:06.477Z,9.58
2019-05-06T20:20:39.414Z,9.48
2019-05-06T20:23:12.518Z,9.59
2019-05-06T20:25:44.963Z,9.51
2019-05-06T20:28:22.848Z,9.44
2019-05-06T20:30:53.299Z,9.44
2019-05-06T20:33:25.917Z,9.39
2019-05-06T20:35:54.811Z,9.31
2019-05-06T20:38:24.454Z,9.45
2019-05-06T20:40:54.406Z,9.41
2019-05-06T20:43:24.911Z,9.35
2019-05-06T20:45:55.505Z,9.33
2019-05-06T20:48:26.474Z,8.99
2019-05-06T20:51:04.929Z,9.04
2019-05-06T20:53:37.071Z,8.93
2019-05-06T20:56:28.841Z,8.91
2019-05-06T20:58:59.027Z,9.00
2019-05-06T21:01:27.832Z,9.11
2019-05-06T21:03:57.719Z,9.35
2019-05-06T21:06:29.482Z,9.51
2019-05-06T21:09:02.144Z,9.46
2019-05-06T21:11:32.667Z,9.36
2019-05-06T21:14:03.862Z,9.36
2019-05-06T21:16:34.659Z,9.29
2019-05-06T21:19:03.579Z,9.30
2019-05-06T21:21:33.966Z,9.38
2019-05-06T21:24:03.937Z,9.36
2019-05-06T21:26:34.500Z,9.37
2019-05-06T21:29:04.341Z,9.48
2019-05-06T21:31:35.609Z,9.33
2019-05-06T21:34:05.694Z,9.39
2019-05-06T21:36:38.631Z,9.29
2019-05-06T21:39:08.802Z,9.38
2019-05-06T21:41:39.069Z,9.27
2019-05-06T21:44:09.232Z,9.24
2019-05-06T21:46:38.834Z,9.23
2019-05-06T21:49:12.338Z,9.18
2019-05-06T21:51:52.207Z,9.27
2019-05-06T21:54:23.301Z,9.34
2019-05-06T21:56:54.189Z,9.38
2019-05-06T21:59:23.136Z,9.37
2019-05-06T22:01:56.231Z,9.36
2019-05-06T22:04:26.719Z,9.37
2019-05-06T22:06:59.548Z,9.52
2019-05-06T22:09:32.297Z,9.38
2019-05-06T22:12:04.291Z,9.40
2019-05-06T22:14:37.228Z,9.30
2019-05-06T22:17:08.703Z,9.29
2019-05-06T22:19:52.411Z,9.36
2019-05-06T22:22:44.311Z,9.36
2019-05-06T22:25:16.472Z,9.55
2019-05-06T22:27:46.791Z,9.51
2019-05-06T22:30:18.131Z,9.68
2019-05-06T22:32:49.753Z,9.59
2019-05-06T22:35:18.848Z,9.49
2019-05-06T22:37:47.675Z,9.42
2019-05-06T22:40:26.453Z,9.41
2019-05-06T22:42:57.248Z,9.45
2019-05-06T22:45:32.895Z,9.34
2019-05-06T22:48:11.997Z,9.31
2019-05-06T22:50:44.091Z,9.30
2019-05-06T22:53:15.717Z,9.40
2019-05-06T22:55:46.195Z,9.48
2019-05-06T22:58:16.492Z,9.44
2019-05-06T23:00:53.766Z,9.38
2019-05-06T23:03:25.849Z,9.22
2019-05-06T23:05:56.371Z,9.14
2019-05-06T23:08:27.950Z,9.26
2019-05-06T23:11:01.108Z,9.25
2019-05-06T23:13:30.167Z,9.27
2019-05-06T23:15:58.865Z,9.25
2019-05-06T23:18:27.553Z,9.30
2019-05-06T23:20:56.265Z,9.32
2019-05-06T23:23:24.882Z,9.36
2019-05-06T23:26:13.019Z,9.37
2019-05-06T23:28:41.585Z,9.38
2019-05-06T23:31:11.858Z,9.38
2019-05-06T23:33:42.762Z,9.32
2019-05-06T23:36:12.100Z,9.34
2019-05-06T23:39:17.144Z,9.28
2019-05-06T23:42:22.821Z,9.27
2019-05-06T23:45:28.142Z,9.22
2019-05-06T23:48:33.193Z,9.22
2019-05-06T23:51:38.069Z,9.22
2019-05-06T23:54:42.936Z,9.22
2019-05-06T23:57:10.321Z,9.03
2019-05-06T23:59:38.928Z,9.20
